Time;durP1;ratioP1;P1;durP2;ratioP2;P2;SDS_P1;SDS_P2;PMS_P1;PMS_P2;Temp;Humidity;BMP_temperature;BMP_pressure;BME280_temperature;BME280_humidity;BME280_pressure;Samples;Min_cycle;Max_cycle;Signal;HPM_P1;HPM_P2
2022/07/20 00:01:31;;;;;;;7.38;2.80;;;;;;;;;;5078896;28;20048;-64
2022/07/20 00:03:58;;;;;;;7.22;3.05;;;;;;;;;;5070255;28;20064;-63
2022/07/20 00:06:27;;;;;;;8.70;2.78;;;;;;;;;;5075032;28;20044;-63
2022/07/20 00:11:39;;;;;;;8.13;2.72;;;;;;;;;;5080586;28;20055;-63
2022/07/20 00:14:07;;;;;;;5.70;2.65;;;;;;;;;;5075896;28;20039;-63
2022/07/20 00:16:35;;;;;;;3.42;2.55;;;;;;;;;;5080858;28;20163;-63
2022/07/20 00:19:03;;;;;;;3.97;2.53;;;;;;;;;;5070039;28;20048;-63
2022/07/20 00:21:31;;;;;;;6.05;2.80;;;;;;;;;;5080651;28;20056;-63
2022/07/20 00:23:59;;;;;;;6.15;3.00;;;;;;;;;;5076611;28;21035;-63
2022/07/20 00:26:26;;;;;;;4.25;2.75;;;;;;;;;;5081588;28;20048;-63
2022/07/20 00:28:53;;;;;;;7.25;2.63;;;;;;;;;;5075632;28;20059;-63
2022/07/20 00:31:21;;;;;;;6.57;2.80;;;;;;;;;;5073708;28;20860;-63
2022/07/20 00:33:48;;;;;;;8.23;2.63;;;;;;;;;;5073130;28;20579;-63
2022/07/20 00:36:15;;;;;;;5.35;2.58;;;;;;;;;;5065680;28;20048;-63
2022/07/20 00:38:44;;;;;;;5.55;2.58;;;;;;;;;;5053296;28;20060;-63
2022/07/20 00:41:11;;;;;;;7.80;2.67;;;;;;;;;;5071842;28;20577;-63
2022/07/20 00:43:54;;;;;;;5.60;2.55;;;;;;;;;;5074151;28;20044;-63
2022/07/20 00:46:21;;;;;;;;;;;;;;;;;;5062658;28;20176;-63
2022/07/20 00:48:48;;;;;;;11.25;3.33;;;;;;;;;;5078587;28;19970;-63
2022/07/20 00:51:16;;;;;;;8.55;3.00;;;;;;;;;;5061615;28;20056;-63
2022/07/20 00:53:45;;;;;;;8.63;3.30;;;;;;;;;;5079330;28;20051;-63
2022/07/20 00:56:13;;;;;;;9.93;2.72;;;;;;;;;;5075201;28;20055;-63
2022/07/20 00:58:40;;;;;;;9.00;2.80;;;;;;;;;;5077617;28;20097;-63
2022/07/20 01:01:07;;;;;;;7.82;2.80;;;;;;;;;;5081280;28;20056;-63
2022/07/20 01:03:35;;;;;;;8.27;2.92;;;;;;;;;;5073525;28;20063;-63
2022/07/20 01:06:02;;;;;;;6.50;2.80;;;;;;;;;;5063242;28;20040;-63
2022/07/20 01:08:29;;;;;;;5.63;2.67;;;;;;;;;;5083869;28;20055;-63
2022/07/20 01:10:58;;;;;;;12.80;2.95;;;;;;;;;;5082147;28;20044;-63
2022/07/20 01:13:26;;;;;;;8.32;2.97;;;;;;;;;;5075198;28;20477;-63
2022/07/20 01:15:53;;;;;;;12.07;3.25;;;;;;;;;;5082315;28;20113;-63
2022/07/20 01:18:21;;;;;;;7.25;2.75;;;;;;;;;;5079757;28;20048;-63
2022/07/20 01:20:49;;;;;;;6.90;3.05;;;;;;;;;;5057579;28;20518;-63
2022/07/20 01:23:18;;;;;;;4.05;2.45;;;;;;;;;;5079488;28;20127;-63
2022/07/20 01:25:45;;;;;;;8.35;2.88;;;;;;;;;;5081433;28;20044;-63
2022/07/20 01:28:13;;;;;;;11.35;3.38;;;;;;;;;;5073336;28;20057;-63
2022/07/20 01:30:41;;;;;;;5.45;2.95;;;;;;;;;;5072221;28;20052;-64
2022/07/20 01:33:08;;;;;;;7.13;2.97;;;;;;;;;;5081132;28;20711;-63
2022/07/20 01:35:35;;;;;;;5.35;2.67;;;;;;;;;;5078054;28;20044;-63
2022/07/20 01:38:03;;;;;;;5.75;2.95;;;;;;;;;;5068119;28;20437;-63
2022/07/20 01:40:31;;;;;;;8.52;2.80;;;;;;;;;;5078653;28;20448;-63
2022/07/20 01:42:58;;;;;;;7.13;2.80;;;;;;;;;;5061384;28;20063;-63
2022/07/20 01:45:26;;;;;;;10.90;3.20;;;;;;;;;;5077188;28;20040;-63
2022/07/20 01:47:53;;;;;;;7.32;3.08;;;;;;;;;;5057086;28;20056;-63
2022/07/20 01:50:20;;;;;;;6.78;2.60;;;;;;;;;;5081648;28;20109;-63
2022/07/20 01:52:47;;;;;;;8.50;2.70;;;;;;;;;;5079588;28;20045;-63
2022/07/20 01:55:15;;;;;;;11.90;3.28;;;;;;;;;;5081886;28;20043;-63
2022/07/20 01:57:44;;;;;;;5.45;2.78;;;;;;;;;;5072925;28;20714;-62
2022/07/20 02:00:12;;;;;;;9.45;2.97;;;;;;;;;;5082404;28;20048;-63
2022/07/20 02:02:40;;;;;;;8.88;2.95;;;;;;;;;;5073720;28;20882;-63
2022/07/20 02:05:08;;;;;;;5.70;2.53;;;;;;;;;;5050748;28;20052;-63
2022/07/20 02:07:35;;;;;;;6.13;2.83;;;;;;;;;;5076123;28;20452;-63
2022/07/20 02:10:02;;;;;;;8.90;2.88;;;;;;;;;;5080461;28;20484;-63
2022/07/20 02:12:30;;;;;;;5.93;2.80;;;;;;;;;;5070812;28;20049;-63
2022/07/20 02:14:58;;;;;;;7.68;2.83;;;;;;;;;;5077360;28;20059;-63
2022/07/20 02:17:25;;;;;;;7.57;2.67;;;;;;;;;;5074263;28;20047;-63
2022/07/20 02:19:53;;;;;;;5.40;3.00;;;;;;;;;;5078398;28;20052;-63
2022/07/20 02:22:20;;;;;;;5.85;3.38;;;;;;;;;;5079224;28;20048;-63
2022/07/20 02:24:47;;;;;;;6.28;2.80;;;;;;;;;;5082580;28;20067;-63
2022/07/20 02:27:14;;;;;;;9.88;3.47;;;;;;;;;;5078377;28;20056;-63
2022/07/20 02:29:41;;;;;;;10.00;2.85;;;;;;;;;;5079554;28;20554;-63
2022/07/20 02:32:10;;;;;;;8.82;3.55;;;;;;;;;;5070196;28;20368;-63
2022/07/20 02:34:37;;;;;;;8.35;3.05;;;;;;;;;;5080635;28;20048;-63
2022/07/20 02:37:05;;;;;;;10.73;3.20;;;;;;;;;;5077868;28;20044;-63
2022/07/20 02:39:32;;;;;;;11.23;3.28;;;;;;;;;;5077573;28;20537;-63
2022/07/20 02:41:59;;;;;;;7.88;3.28;;;;;;;;;;5072641;28;20047;-63
2022/07/20 02:44:26;;;;;;;9.13;3.22;;;;;;;;;;5083547;28;20097;-63
2022/07/20 02:46:54;;;;;;;8.13;2.80;;;;;;;;;;5078108;28;20044;-63
2022/07/20 02:49:22;;;;;;;7.50;3.00;;;;;;;;;;5075834;28;20562;-63
2022/07/20 02:51:50;;;;;;;6.40;2.80;;;;;;;;;;5082623;28;20052;-63
2022/07/20 02:54:17;;;;;;;7.68;3.35;;;;;;;;;;5077786;28;20717;-63
2022/07/20 02:56:44;;;;;;;7.28;3.15;;;;;;;;;;5081141;28;20730;-63
2022/07/20 02:59:11;;;;;;;6.05;3.10;;;;;;;;;;5077912;28;20040;-63
2022/07/20 03:01:38;;;;;;;8.45;3.20;;;;;;;;;;5080135;28;20108;-63
2022/07/20 03:04:05;;;;;;;6.15;2.95;;;;;;;;;;5076520;28;20040;-63
2022/07/20 03:06:34;;;;;;;6.20;3.00;;;;;;;;;;5077704;28;20055;-63
2022/07/20 03:09:01;;;;;;;10.45;2.80;;;;;;;;;;5070674;28;20051;-63
2022/07/20 03:11:28;;;;;;;6.13;3.20;;;;;;;;;;5076593;28;20051;-63
2022/07/20 03:13:56;;;;;;;5.80;3.38;;;;;;;;;;5080591;28;20050;-63
2022/07/20 03:16:23;;;;;;;13.82;3.70;;;;;;;;;;5080220;28;20040;-63
2022/07/20 03:18:50;;;;;;;7.20;2.92;;;;;;;;;;5081766;28;20081;-62
2022/07/20 03:21:17;;;;;;;5.82;2.83;;;;;;;;;;5080507;28;20048;-63
2022/07/20 03:23:46;;;;;;;5.88;3.03;;;;;;;;;;5079633;28;20495;-63
2022/07/20 03:26:13;;;;;;;9.80;3.13;;;;;;;;;;5073812;28;20040;-62
2022/07/20 03:28:40;;;;;;;5.30;3.22;;;;;;;;;;5076925;28;20113;-63
2022/07/20 03:31:07;;;;;;;9.13;3.33;;;;;;;;;;5074166;28;20543;-63
2022/07/20 03:33:35;;;;;;;8.50;3.20;;;;;;;;;;5081115;28;20053;-63
2022/07/20 03:36:02;;;;;;;6.03;3.03;;;;;;;;;;5077921;28;20506;-63
2022/07/20 03:38:29;;;;;;;6.68;3.40;;;;;;;;;;5055852;28;20138;-63
2022/07/20 03:40:57;;;;;;;7.45;3.15;;;;;;;;;;5078264;28;20098;-62
2022/07/20 03:43:25;;;;;;;7.53;3.22;;;;;;;;;;5072804;28;20044;-63
2022/07/20 03:45:52;;;;;;;8.73;2.97;;;;;;;;;;5075340;28;20774;-62
2022/07/20 03:48:20;;;;;;;6.95;2.78;;;;;;;;;;5075978;28;20043;-62
2022/07/20 03:50:47;;;;;;;5.20;2.72;;;;;;;;;;5078053;28;20114;-63
2022/07/20 03:53:14;;;;;;;7.97;3.80;;;;;;;;;;5077096;28;20052;-62
2022/07/20 03:55:42;;;;;;;12.02;3.00;;;;;;;;;;5075519;28;20561;-62
2022/07/20 03:58:10;;;;;;;12.80;3.10;;;;;;;;;;5078831;28;20121;-62
2022/07/20 04:00:37;;;;;;;9.30;3.38;;;;;;;;;;5062324;28;20120;-62
2022/07/20 04:03:05;;;;;;;4.50;2.78;;;;;;;;;;5075162;28;20106;-63
2022/07/20 04:05:32;;;;;;;9.40;3.20;;;;;;;;;;5079367;28;20655;-62
2022/07/20 04:07:59;;;;;;;8.25;3.35;;;;;;;;;;5056788;28;20056;-62
2022/07/20 04:10:26;;;;;;;5.00;2.83;;;;;;;;;;5082268;28;20521;-63
2022/07/20 04:12:54;;;;;;;6.03;3.08;;;;;;;;;;5077789;28;20109;-63
2022/07/20 04:15:22;;;;;;;8.82;2.88;;;;;;;;;;5079569;28;20048;-63
2022/07/20 04:17:49;;;;;;;8.10;2.97;;;;;;;;;;5074936;28;20040;-62
2022/07/20 04:20:16;;;;;;;9.80;3.08;;;;;;;;;;5080113;28;20486;-63
2022/07/20 04:22:44;;;;;;;5.85;3.20;;;;;;;;;;5085775;28;20067;-62
2022/07/20 04:25:11;;;;;;;7.43;3.40;;;;;;;;;;5060948;28;20056;-62
2022/07/20 04:27:38;;;;;;;5.88;3.13;;;;;;;;;;5080902;28;20055;-63
2022/07/20 04:30:06;;;;;;;7.15;3.08;;;;;;;;;;5067633;28;20052;-62
2022/07/20 04:32:35;;;;;;;10.13;3.80;;;;;;;;;;5077589;28;20101;-62
2022/07/20 04:35:02;;;;;;;5.70;3.25;;;;;;;;;;5081732;28;20106;-62
2022/07/20 04:37:29;;;;;;;8.82;3.53;;;;;;;;;;5080068;28;20048;-63
2022/07/20 04:39:56;;;;;;;8.18;3.25;;;;;;;;;;5058895;28;20044;-62
2022/07/20 04:42:23;;;;;;;7.70;3.70;;;;;;;;;;5082451;28;20055;-63
2022/07/20 04:44:50;;;;;;;8.13;3.55;;;;;;;;;;5057320;28;20470;-62
2022/07/20 04:47:18;;;;;;;16.05;3.65;;;;;;;;;;5082299;28;20047;-62
2022/07/20 04:49:46;;;;;;;8.23;3.20;;;;;;;;;;5055545;28;20117;-62
2022/07/20 04:52:13;;;;;;;10.40;3.28;;;;;;;;;;5078476;28;20052;-62
2022/07/20 04:54:41;;;;;;;8.43;3.30;;;;;;;;;;5084567;28;20094;-62
2022/07/20 04:57:08;;;;;;;7.93;2.80;;;;;;;;;;5076939;28;20109;-62
2022/07/20 04:59:37;;;;;;;5.85;3.25;;;;;;;;;;5082719;28;20083;-63
2022/07/20 05:02:04;;;;;;;5.93;3.35;;;;;;;;;;5076067;28;20044;-63
2022/07/20 05:04:32;;;;;;;14.73;3.28;;;;;;;;;;5073556;28;20056;-62
2022/07/20 05:07:00;;;;;;;7.32;3.15;;;;;;;;;;5077915;28;20041;-63
2022/07/20 05:09:27;;;;;;;13.30;3.47;;;;;;;;;;5072032;28;20059;-63
2022/07/20 05:11:55;;;;;;;6.22;2.95;;;;;;;;;;5079338;28;20044;-63
2022/07/20 05:14:22;;;;;;;14.18;3.08;;;;;;;;;;5081962;28;20109;-63
2022/07/20 05:16:49;;;;;;;11.35;3.42;;;;;;;;;;5077396;28;20048;-63
2022/07/20 05:19:16;;;;;;;9.93;3.00;;;;;;;;;;5060403;28;20146;-63
2022/07/20 05:21:44;;;;;;;9.07;3.40;;;;;;;;;;5062530;28;20051;-63
2022/07/20 05:24:12;;;;;;;12.23;3.60;;;;;;;;;;5075542;28;20043;-62
2022/07/20 05:26:39;;;;;;;5.55;2.90;;;;;;;;;;5070027;28;20052;-63
2022/07/20 05:29:07;;;;;;;11.07;3.60;;;;;;;;;;5082063;28;20645;-63
2022/07/20 05:31:34;;;;;;;6.85;2.70;;;;;;;;;;5080653;28;20056;-63
2022/07/20 05:34:01;;;;;;;8.50;2.90;;;;;;;;;;5080221;28;20155;-63
2022/07/20 05:36:28;;;;;;;8.23;3.22;;;;;;;;;;5081203;28;20108;-63
2022/07/20 05:38:56;;;;;;;6.78;2.80;;;;;;;;;;5078170;28;20109;-63
2022/07/20 05:41:24;;;;;;;15.25;3.60;;;;;;;;;;5075451;28;20048;-63
2022/07/20 05:43:51;;;;;;;8.75;3.28;;;;;;;;;;5081379;28;20044;-63
2022/07/20 05:46:18;;;;;;;11.00;3.20;;;;;;;;;;5076532;28;20052;-63
2022/07/20 05:48:46;;;;;;;9.65;3.70;;;;;;;;;;5056251;28;20051;-63
2022/07/20 05:51:13;;;;;;;9.05;3.30;;;;;;;;;;5078974;28;20052;-63
2022/07/20 05:53:40;;;;;;;7.88;3.40;;;;;;;;;;5080153;28;20044;-63
2022/07/20 05:56:08;;;;;;;14.02;4.18;;;;;;;;;;5076566;28;20109;-63
2022/07/20 05:58:36;;;;;;;13.02;3.60;;;;;;;;;;5083089;28;20052;-63
2022/07/20 06:01:03;;;;;;;10.10;4.03;;;;;;;;;;5075634;28;20068;-63
2022/07/20 06:03:31;;;;;;;12.85;3.63;;;;;;;;;;5080775;28;20048;-63
2022/07/20 06:05:58;;;;;;;8.73;3.50;;;;;;;;;;5059673;28;20387;-63
2022/07/20 06:08:25;;;;;;;10.80;3.70;;;;;;;;;;5082515;28;20074;-63
2022/07/20 06:10:52;;;;;;;8.52;3.72;;;;;;;;;;5079824;28;20052;-63
2022/07/20 06:13:19;;;;;;;8.50;4.63;;;;;;;;;;5075504;28;20044;-63
2022/07/20 06:15:48;;;;;;;11.70;4.50;;;;;;;;;;5083253;28;20054;-63
2022/07/20 06:18:15;;;;;;;13.82;4.45;;;;;;;;;;5064319;28;20449;-63
2022/07/20 06:20:43;;;;;;;13.43;5.18;;;;;;;;;;5077686;28;20047;-63
2022/07/20 06:23:10;;;;;;;10.20;4.88;;;;;;;;;;5079801;28;20059;-63
2022/07/20 06:25:37;;;;;;;15.75;4.70;;;;;;;;;;5078219;28;20079;-63
2022/07/20 06:28:04;;;;;;;9.20;5.25;;;;;;;;;;5081821;28;20036;-63
2022/07/20 06:30:31;;;;;;;16.98;6.22;;;;;;;;;;5080930;28;20044;-63
2022/07/20 06:33:00;;;;;;;12.65;6.60;;;;;;;;;;5078412;28;20461;-63
2022/07/20 06:35:27;;;;;;;16.95;6.43;;;;;;;;;;5075590;28;20048;-63
2022/07/20 06:37:54;;;;;;;15.57;6.88;;;;;;;;;;5071319;28;20052;-64
2022/07/20 06:40:22;;;;;;;16.45;6.75;;;;;;;;;;5078209;28;20048;-63
2022/07/20 06:42:49;;;;;;;14.73;6.97;;;;;;;;;;5067005;28;20109;-63
2022/07/20 06:45:16;;;;;;;20.95;7.60;;;;;;;;;;5079197;28;20056;-64
2022/07/20 06:47:43;;;;;;;22.58;7.80;;;;;;;;;;5082566;28;20483;-63
2022/07/20 06:50:12;;;;;;;15.88;7.70;;;;;;;;;;5077711;28;20048;-63
2022/07/20 06:52:39;;;;;;;17.33;8.13;;;;;;;;;;5078635;28;20059;-63
2022/07/20 06:55:07;;;;;;;20.65;9.95;;;;;;;;;;5079540;28;20537;-63
2022/07/20 06:57:34;;;;;;;25.38;9.35;;;;;;;;;;5082814;28;20501;-63
2022/07/20 07:00:01;;;;;;;20.27;9.80;;;;;;;;;;5076081;28;20104;-64
2022/07/20 07:02:29;;;;;;;19.33;9.05;;;;;;;;;;5081727;28;20048;-64
2022/07/20 07:04:57;;;;;;;24.00;9.65;;;;;;;;;;5078299;28;20049;-64
2022/07/20 07:07:25;;;;;;;19.52;9.63;;;;;;;;;;5075037;28;20036;-63
2022/07/20 07:09:53;;;;;;;19.85;9.88;;;;;;;;;;5077766;28;20048;-64
2022/07/20 07:12:20;;;;;;;21.52;10.15;;;;;;;;;;5059442;28;20112;-63
2022/07/20 07:14:47;;;;;;;17.38;9.77;;;;;;;;;;5078959;28;20499;-63
2022/07/20 07:17:14;;;;;;;27.35;10.85;;;;;;;;;;5082343;28;20044;-63
2022/07/20 07:19:42;;;;;;;24.90;11.05;;;;;;;;;;5081689;28;20113;-63
2022/07/20 07:22:09;;;;;;;20.33;11.52;;;;;;;;;;5053664;28;20524;-64
2022/07/20 07:24:37;;;;;;;26.35;13.52;;;;;;;;;;5076921;28;20052;-64
2022/07/20 07:27:05;;;;;;;25.15;14.80;;;;;;;;;;5077086;28;20649;-64
2022/07/20 07:29:32;;;;;;;29.30;16.20;;;;;;;;;;5081803;28;20509;-63
2022/07/20 07:31:59;;;;;;;26.90;15.30;;;;;;;;;;5069313;28;20118;-64
2022/07/20 07:34:26;;;;;;;29.42;16.13;;;;;;;;;;5071894;28;20048;-63
2022/07/20 07:36:54;;;;;;;36.58;17.17;;;;;;;;;;5076668;28;20402;-63
2022/07/20 07:39:21;;;;;;;36.08;16.38;;;;;;;;;;5074243;28;20039;-64
2022/07/20 07:41:49;;;;;;;31.10;16.58;;;;;;;;;;5079589;28;20132;-63
2022/07/20 07:44:17;;;;;;;35.83;18.38;;;;;;;;;;5080167;28;20059;-63
2022/07/20 07:46:44;;;;;;;34.47;17.05;;;;;;;;;;5053303;28;20556;-63
2022/07/20 07:49:11;;;;;;;35.63;17.75;;;;;;;;;;5058959;28;20068;-63
2022/07/20 07:51:38;;;;;;;34.25;17.40;;;;;;;;;;5070431;28;20655;-63
2022/07/20 07:54:06;;;;;;;32.10;16.67;;;;;;;;;;5081616;28;20121;-64
2022/07/20 07:56:33;;;;;;;32.63;17.10;;;;;;;;;;5076157;28;20048;-64
2022/07/20 07:59:02;;;;;;;31.20;17.98;;;;;;;;;;5085483;28;20742;-64
2022/07/20 08:01:29;;;;;;;31.60;17.75;;;;;;;;;;5075678;28;20407;-63
2022/07/20 08:03:56;;;;;;;31.98;18.05;;;;;;;;;;5079715;28;20086;-64
2022/07/20 08:06:24;;;;;;;39.60;18.10;;;;;;;;;;5078178;28;20048;-64
2022/07/20 08:08:51;;;;;;;38.45;18.38;;;;;;;;;;5081278;28;20051;-63
2022/07/20 08:11:18;;;;;;;35.55;18.70;;;;;;;;;;5081498;28;20070;-64
2022/07/20 08:13:45;;;;;;;38.53;19.52;;;;;;;;;;5069580;28;20067;-64
2022/07/20 08:16:14;;;;;;;32.00;17.95;;;;;;;;;;5080699;28;20417;-64
2022/07/20 08:18:41;;;;;;;35.55;19.00;;;;;;;;;;5081939;28;20123;-64
2022/07/20 08:21:08;;;;;;;34.05;17.92;;;;;;;;;;5075776;28;20052;-64
2022/07/20 08:23:36;;;;;;;30.95;18.00;;;;;;;;;;5055669;28;20143;-64
2022/07/20 08:26:03;;;;;;;38.42;19.45;;;;;;;;;;5074351;28;20048;-64
2022/07/20 08:28:30;;;;;;;33.22;19.25;;;;;;;;;;5078720;28;20044;-63
2022/07/20 08:30:57;;;;;;;37.13;19.10;;;;;;;;;;5077491;28;20542;-63
2022/07/20 08:33:26;;;;;;;31.58;18.13;;;;;;;;;;5078753;28;20125;-63
2022/07/20 08:35:53;;;;;;;33.88;19.08;;;;;;;;;;5071161;28;20044;-64
2022/07/20 08:38:20;;;;;;;40.00;19.55;;;;;;;;;;5082845;28;20048;-64
2022/07/20 08:40:48;;;;;;;34.80;19.42;;;;;;;;;;5077816;28;20048;-63
2022/07/20 08:43:16;;;;;;;34.85;20.05;;;;;;;;;;5081202;28;20056;-63
2022/07/20 08:45:43;;;;;;;37.60;19.48;;;;;;;;;;5075834;28;20044;-64
2022/07/20 08:48:12;;;;;;;38.25;19.80;;;;;;;;;;5058777;28;20048;-63
2022/07/20 08:50:41;;;;;;;34.25;17.40;;;;;;;;;;5081008;28;20563;-63
2022/07/20 08:53:09;;;;;;;33.35;16.05;;;;;;;;;;5074279;28;20713;-63
2022/07/20 08:55:36;;;;;;;38.30;15.85;;;;;;;;;;5075122;28;20563;-64
2022/07/20 08:58:03;;;;;;;34.08;15.63;;;;;;;;;;5081062;28;20097;-64
2022/07/20 09:00:30;;;;;;;33.10;15.25;;;;;;;;;;5069513;28;20102;-64
2022/07/20 09:03:01;;;;;;;30.58;14.05;;;;;;;;;;5056801;28;20055;-63
2022/07/20 09:05:28;;;;;;;35.95;13.88;;;;;;;;;;5078237;28;20049;-63
2022/07/20 09:07:57;;;;;;;24.63;12.07;;;;;;;;;;5079485;28;20052;-64
2022/07/20 09:10:25;;;;;;;25.13;11.95;;;;;;;;;;5077321;28;20399;-63
2022/07/20 09:12:57;;;;;;;29.52;12.07;;;;;;;;;;5077133;28;20089;-64
2022/07/20 09:15:30;;;;;;;28.83;12.02;;;;;;;;;;5063834;28;20109;-64
2022/07/20 09:18:08;;;;;;;27.25;12.15;;;;;;;;;;5074035;28;20037;-63
2022/07/20 09:20:36;;;;;;;27.60;11.27;;;;;;;;;;5061927;28;20056;-63
2022/07/20 09:23:05;;;;;;;28.90;11.88;;;;;;;;;;5077803;28;20056;-63
2022/07/20 09:25:33;;;;;;;27.67;10.98;;;;;;;;;;5083733;28;20051;-63
2022/07/20 09:28:01;;;;;;;25.02;11.45;;;;;;;;;;5076439;28;20052;-63
2022/07/20 09:30:28;;;;;;;22.48;11.57;;;;;;;;;;5080136;28;20093;-63
2022/07/20 09:32:57;;;;;;;20.17;11.43;;;;;;;;;;5081208;28;20145;-64
2022/07/20 09:35:27;;;;;;;22.90;11.13;;;;;;;;;;5071123;28;20055;-64
2022/07/20 09:37:56;;;;;;;23.38;10.38;;;;;;;;;;5077970;28;20048;-63
2022/07/20 09:40:25;;;;;;;23.73;10.52;;;;;;;;;;5071678;28;20055;-63
2022/07/20 09:42:52;;;;;;;21.98;10.60;;;;;;;;;;5076365;28;20056;-63
2022/07/20 09:45:20;;;;;;;28.65;9.35;;;;;;;;;;5078110;28;20109;-63
2022/07/20 09:48:04;;;;;;;19.38;9.23;;;;;;;;;;5071716;28;20048;-63
2022/07/20 09:50:32;;;;;;;21.73;9.18;;;;;;;;;;5072044;28;20055;-64
2022/07/20 09:53:00;;;;;;;17.40;8.75;;;;;;;;;;5079001;28;20052;-63
2022/07/20 09:55:29;;;;;;;21.38;8.90;;;;;;;;;;5075645;28;20109;-63
2022/07/20 09:57:56;;;;;;;16.58;8.65;;;;;;;;;;5074412;28;20056;-63
2022/07/20 10:00:23;;;;;;;15.60;8.27;;;;;;;;;;5081096;28;20109;-63
2022/07/20 10:02:53;;;;;;;18.05;9.10;;;;;;;;;;5077613;28;20052;-63
2022/07/20 10:05:21;;;;;;;21.45;8.95;;;;;;;;;;5079882;28;20052;-63
2022/07/20 10:07:49;;;;;;;22.05;8.68;;;;;;;;;;5081833;28;20055;-64
2022/07/20 10:10:16;;;;;;;18.90;8.18;;;;;;;;;;5076158;28;20585;-63
2022/07/20 10:12:44;;;;;;;12.52;7.28;;;;;;;;;;5080404;28;20040;-64
2022/07/20 10:15:14;;;;;;;16.55;7.35;;;;;;;;;;5077375;28;20147;-63
2022/07/20 10:17:42;;;;;;;20.85;8.25;;;;;;;;;;5072875;28;21380;-63
2022/07/20 10:20:28;;;;;;;14.93;7.70;;;;;;;;;;5055393;28;20051;-63
2022/07/20 10:23:11;;;;;;;20.15;7.40;;;;;;;;;;5071834;28;20056;-63
2022/07/20 10:25:38;;;;;;;17.93;7.67;;;;;;;;;;5076310;28;20056;-64
2022/07/20 10:28:20;;;;;;;17.63;6.90;;;;;;;;;;5074406;28;20052;-63
2022/07/20 10:30:56;;;;;;;15.57;7.07;;;;;;;;;;5076454;28;20052;-63
2022/07/20 10:33:25;;;;;;;17.77;7.43;;;;;;;;;;5077670;28;20040;-63
2022/07/20 10:35:52;;;;;;;17.30;6.88;;;;;;;;;;5072644;28;20056;-64
2022/07/20 10:38:20;;;;;;;20.38;6.82;;;;;;;;;;5076259;28;20086;-63
2022/07/20 10:44:08;;;;;;;19.63;6.70;;;;;;;;;;5076456;28;20462;-63
2022/07/20 10:46:37;;;;;;;14.75;6.60;;;;;;;;;;5078968;28;20839;-64
2022/07/20 10:49:04;;;;;;;19.42;7.35;;;;;;;;;;5074214;28;20486;-63
2022/07/20 10:51:31;;;;;;;18.40;8.43;;;;;;;;;;5081664;28;20686;-63
2022/07/20 10:54:18;;;;;;;14.85;7.53;;;;;;;;;;5077823;28;20048;-64
2022/07/20 10:56:46;;;;;;;16.85;8.32;;;;;;;;;;5058665;28;20679;-64
2022/07/20 10:59:13;;;;;;;17.40;7.95;;;;;;;;;;5080236;28;20040;-64
2022/07/20 11:01:42;;;;;;;17.55;8.65;;;;;;;;;;5081661;28;20044;-64
2022/07/20 11:04:13;;;;;;;18.48;8.43;;;;;;;;;;5067734;28;20556;-64
2022/07/20 11:06:41;;;;;;;16.27;8.80;;;;;;;;;;5075410;28;20052;-64
2022/07/20 11:09:08;;;;;;;19.70;8.55;;;;;;;;;;5079204;28;20044;-64
2022/07/20 11:11:36;;;;;;;16.60;8.45;;;;;;;;;;5079618;28;20116;-64
2022/07/20 11:14:05;;;;;;;14.68;8.27;;;;;;;;;;5079371;28;20498;-64
2022/07/20 11:16:33;;;;;;;15.55;7.78;;;;;;;;;;5078130;28;20498;-64
2022/07/20 11:19:02;;;;;;;19.60;8.20;;;;;;;;;;5071799;28;20766;-64
2022/07/20 11:21:30;;;;;;;13.35;7.43;;;;;;;;;;5071250;28;20118;-64
2022/07/20 11:23:57;;;;;;;14.95;7.53;;;;;;;;;;5071853;28;20109;-64
2022/07/20 11:26:25;;;;;;;19.73;7.40;;;;;;;;;;5070150;28;20040;-63
2022/07/20 11:28:53;;;;;;;16.85;6.30;;;;;;;;;;5077698;28;20043;-64
2022/07/20 11:31:22;;;;;;;15.18;6.70;;;;;;;;;;5055181;28;20114;-63
2022/07/20 11:33:51;;;;;;;13.90;6.35;;;;;;;;;;5071970;28;20094;-64
2022/07/20 11:36:20;;;;;;;12.15;6.03;;;;;;;;;;5073981;28;20047;-64
2022/07/20 11:38:48;;;;;;;11.43;6.10;;;;;;;;;;5070117;28;20051;-64
2022/07/20 11:41:16;;;;;;;16.50;6.00;;;;;;;;;;5068641;28;20044;-64
2022/07/20 11:43:43;;;;;;;12.95;6.30;;;;;;;;;;5078492;28;20581;-64
2022/07/20 11:46:11;;;;;;;13.68;5.78;;;;;;;;;;5072989;28;20044;-64
2022/07/20 11:48:39;;;;;;;15.25;5.40;;;;;;;;;;5072747;28;20048;-64
2022/07/20 11:51:07;;;;;;;16.08;4.80;;;;;;;;;;5074213;28;20052;-64
2022/07/20 11:53:36;;;;;;;9.02;4.10;;;;;;;;;;5077918;28;20048;-64
2022/07/20 11:56:06;;;;;;;8.30;3.67;;;;;;;;;;5075787;28;20044;-64
2022/07/20 11:58:34;;;;;;;8.77;3.97;;;;;;;;;;5073876;28;20093;-65
2022/07/20 12:01:02;;;;;;;9.57;3.80;;;;;;;;;;5075767;28;20053;-64
2022/07/20 12:03:31;;;;;;;15.55;4.35;;;;;;;;;;5080294;28;20048;-64
2022/07/20 12:06:02;;;;;;;13.18;4.57;;;;;;;;;;5060413;28;20052;-65
2022/07/20 12:08:29;;;;;;;7.68;4.38;;;;;;;;;;5079605;28;20043;-64
2022/07/20 12:10:58;;;;;;;10.82;5.10;;;;;;;;;;5075116;28;20853;-64
2022/07/20 12:13:26;;;;;;;7.15;4.47;;;;;;;;;;5059823;28;20051;-64
2022/07/20 12:15:57;;;;;;;9.48;4.40;;;;;;;;;;5071535;28;20105;-64
2022/07/20 12:18:41;;;;;;;7.13;4.37;;;;;;;;;;5077106;28;20044;-64
2022/07/20 12:21:10;;;;;;;11.30;5.45;;;;;;;;;;5077983;28;20588;-64
2022/07/20 12:23:37;;;;;;;14.10;5.25;;;;;;;;;;5077225;28;20059;-64
2022/07/20 12:26:20;;;;;;;11.63;5.10;;;;;;;;;;5073820;28;20045;-65
2022/07/20 12:28:47;;;;;;;10.45;5.20;;;;;;;;;;5077104;28;20132;-64
2022/07/20 12:31:15;;;;;;;10.32;5.80;;;;;;;;;;5071651;28;20048;-64
2022/07/20 12:33:57;;;;;;;12.65;5.20;;;;;;;;;;5061419;28;20060;-64
2022/07/20 12:36:32;;;;;;;11.15;5.53;;;;;;;;;;5071476;28;20044;-64
2022/07/20 12:38:59;;;;;;;10.05;4.38;;;;;;;;;;5074010;28;20127;-64
2022/07/20 12:41:28;;;;;;;9.48;4.38;;;;;;;;;;5075598;28;20052;-64
2022/07/20 12:43:55;;;;;;;9.32;5.68;;;;;;;;;;5065028;28;20601;-64
2022/07/20 12:46:22;;;;;;;11.50;5.75;;;;;;;;;;5079081;28;20043;-64
2022/07/20 12:48:50;;;;;;;11.68;5.93;;;;;;;;;;5081340;28;20051;-64
2022/07/20 12:51:18;;;;;;;11.82;6.03;;;;;;;;;;5075727;28;20220;-64
2022/07/20 12:53:48;;;;;;;14.98;6.97;;;;;;;;;;5081292;28;20114;-65
2022/07/20 12:56:16;;;;;;;12.25;6.28;;;;;;;;;;5075893;28;20356;-65
2022/07/20 12:58:45;;;;;;;16.50;7.72;;;;;;;;;;5078106;28;20047;-64
2022/07/20 13:01:13;;;;;;;16.23;7.70;;;;;;;;;;5072098;28;20044;-64
2022/07/20 13:03:40;;;;;;;16.15;7.93;;;;;;;;;;5075188;28;20055;-64
2022/07/20 13:06:08;;;;;;;14.23;7.78;;;;;;;;;;5055536;28;20120;-64
2022/07/20 13:08:35;;;;;;;15.38;6.85;;;;;;;;;;5079740;28;20446;-65
2022/07/20 13:11:03;;;;;;;12.88;7.97;;;;;;;;;;5076173;28;20051;-65
2022/07/20 13:13:30;;;;;;;13.15;8.27;;;;;;;;;;5082425;28;20048;-65
2022/07/20 13:15:59;;;;;;;15.40;8.07;;;;;;;;;;5081969;28;20052;-64
2022/07/20 13:18:26;;;;;;;16.73;8.32;;;;;;;;;;5080071;28;20106;-64
2022/07/20 13:20:53;;;;;;;18.13;7.75;;;;;;;;;;5076613;28;20110;-65
2022/07/20 13:23:21;;;;;;;14.07;7.13;;;;;;;;;;5076540;28;20052;-64
2022/07/20 13:25:48;;;;;;;12.27;6.75;;;;;;;;;;5077530;28;20048;-64
2022/07/20 13:28:16;;;;;;;11.38;6.75;;;;;;;;;;5084528;28;20067;-64
2022/07/20 13:30:44;;;;;;;11.25;6.75;;;;;;;;;;5077245;28;20131;-64
2022/07/20 13:33:12;;;;;;;12.13;6.70;;;;;;;;;;5078487;28;20059;-64
2022/07/20 13:35:42;;;;;;;11.63;6.68;;;;;;;;;;5072583;28;20051;-64
2022/07/20 13:38:10;;;;;;;11.70;6.72;;;;;;;;;;5074990;28;20052;-64
2022/07/20 13:40:37;;;;;;;12.93;6.35;;;;;;;;;;5082380;28;20055;-64
2022/07/20 13:43:05;;;;;;;11.95;6.53;;;;;;;;;;5082923;28;20051;-64
2022/07/20 13:45:32;;;;;;;12.07;6.53;;;;;;;;;;5078082;28;20052;-64
2022/07/20 13:47:59;;;;;;;13.85;7.05;;;;;;;;;;5073430;28;20041;-64
2022/07/20 13:50:28;;;;;;;12.05;6.13;;;;;;;;;;5082584;28;20098;-65
2022/07/20 13:52:55;;;;;;;10.27;6.55;;;;;;;;;;5077702;28;20093;-65
2022/07/20 13:55:22;;;;;;;11.38;5.50;;;;;;;;;;5075489;28;20588;-64
2022/07/20 13:57:49;;;;;;;10.98;5.85;;;;;;;;;;5076041;28;20886;-65
2022/07/20 14:00:17;;;;;;;11.07;5.95;;;;;;;;;;5062464;28;20040;-64
2022/07/20 14:02:44;;;;;;;14.20;6.10;;;;;;;;;;5079961;28;20102;-64
2022/07/20 14:05:12;;;;;;;12.32;6.07;;;;;;;;;;5071903;28;20052;-64
2022/07/20 14:07:42;;;;;;;11.20;5.20;;;;;;;;;;5083462;28;20088;-64
2022/07/20 14:10:10;;;;;;;12.18;5.40;;;;;;;;;;5078788;28;20323;-64
2022/07/20 14:12:37;;;;;;;12.10;4.57;;;;;;;;;;5072122;28;20083;-64
2022/07/20 14:15:05;;;;;;;7.93;4.47;;;;;;;;;;5075148;28;20538;-64
2022/07/20 14:17:33;;;;;;;8.23;4.20;;;;;;;;;;5080535;28;20048;-64
2022/07/20 14:20:00;;;;;;;7.80;4.32;;;;;;;;;;5058701;28;20048;-64
2022/07/20 14:22:28;;;;;;;8.38;4.65;;;;;;;;;;5075976;28;20287;-63
2022/07/20 14:24:57;;;;;;;14.45;5.05;;;;;;;;;;5073395;28;20490;-63
2022/07/20 14:27:25;;;;;;;9.25;4.72;;;;;;;;;;5077386;28;20060;-64
2022/07/20 14:29:52;;;;;;;7.45;4.47;;;;;;;;;;5081564;28;20059;-64
2022/07/20 14:32:19;;;;;;;7.82;4.22;;;;;;;;;;5078120;28;20079;-63
2022/07/20 14:34:46;;;;;;;9.43;4.75;;;;;;;;;;5077399;28;20052;-64
2022/07/20 14:37:14;;;;;;;8.70;4.65;;;;;;;;;;5073333;28;20105;-63
2022/07/20 14:39:42;;;;;;;15.18;4.85;;;;;;;;;;5078843;28;20773;-63
2022/07/20 14:42:10;;;;;;;9.98;4.20;;;;;;;;;;5076196;28;20048;-63
2022/07/20 14:44:39;;;;;;;7.80;4.40;;;;;;;;;;5076232;28;20043;-64